createdAt,value
2022-12-06T00:02:22.774Z,9.63
2022-12-06T00:04:55.409Z,9.50
2022-12-06T00:07:27.338Z,8.52
2022-12-06T00:10:00.193Z,7.65
2022-12-06T00:12:32.187Z,8.80
2022-12-06T00:15:05.296Z,8.75
2022-12-06T00:17:42.785Z,8.90
2022-12-06T00:20:15.060Z,9.43
2022-12-06T00:22:48.142Z,10.00
2022-12-06T00:25:20.172Z,9.43
2022-12-06T00:27:52.755Z,12.77
2022-12-06T00:30:24.803Z,8.73
2022-12-06T00:32:57.491Z,9.80
2022-12-06T00:35:29.447Z,9.30
2022-12-06T00:38:02.082Z,11.02
2022-12-06T00:40:34.039Z,7.88
2022-12-06T00:43:06.644Z,10.80
2022-12-06T00:45:38.963Z,9.43
2022-12-06T00:48:11.585Z,9.88
2022-12-06T00:50:43.574Z,9.13
2022-12-06T00:53:16.834Z,9.70
2022-12-06T00:55:49.265Z,8.77
2022-12-06T00:58:22.865Z,10.82
2022-12-06T01:00:54.874Z,10.32
2022-12-06T01:03:32.103Z,11.18
2022-12-06T01:06:11.137Z,9.82
2022-12-06T01:08:44.222Z,10.70
2022-12-06T01:11:16.998Z,11.27
2022-12-06T01:13:50.812Z,10.40
2022-12-06T01:16:26.265Z,11.45
2022-12-06T01:19:02.333Z,11.43
2022-12-06T01:21:34.479Z,11.53
2022-12-06T01:24:07.572Z,10.95
2022-12-06T01:26:39.481Z,11.15
2022-12-06T01:29:12.328Z,9.95
2022-12-06T01:31:44.234Z,12.75
2022-12-06T01:34:18.042Z,10.80
2022-12-06T01:36:50.429Z,9.85
2022-12-06T01:39:23.025Z,9.57
2022-12-06T01:41:54.971Z,10.38
2022-12-06T01:44:55.585Z,9.90
2022-12-06T01:47:41.199Z,10.30
2022-12-06T01:50:26.076Z,12.00
2022-12-06T01:53:04.264Z,11.95
2022-12-06T01:55:39.874Z,10.35
2022-12-06T01:58:17.962Z,10.02
2022-12-06T02:00:50.768Z,9.87
2022-12-06T02:03:27.957Z,9.27
2022-12-06T02:06:07.163Z,9.60
2022-12-06T02:08:39.401Z,9.18
2022-12-06T02:11:12.656Z,10.05
2022-12-06T02:13:45.841Z,8.47
2022-12-06T02:17:03.377Z,11.82
2022-12-06T02:19:45.497Z,8.70
2022-12-06T02:23:00.220Z,9.48
2022-12-06T02:26:07.111Z,8.40
2022-12-06T02:29:16.249Z,7.53
2022-12-06T02:31:58.740Z,10.10
2022-12-06T02:34:40.271Z,9.73
2022-12-06T02:37:24.434Z,8.18
2022-12-06T02:40:08.858Z,10.00
2022-12-06T02:42:46.459Z,8.37
2022-12-06T02:45:24.080Z,9.77
2022-12-06T02:48:02.191Z,10.05
2022-12-06T02:50:43.897Z,7.50
2022-12-06T02:53:19.960Z,9.02
2022-12-06T02:55:53.293Z,8.73
2022-12-06T02:58:26.057Z,8.93
2022-12-06T03:01:01.581Z,8.55
2022-12-06T03:03:47.815Z,8.50
2022-12-06T03:06:40.941Z,7.45
2022-12-06T03:09:37.817Z,8.27
2022-12-06T03:12:30.924Z,10.50
2022-12-06T03:15:29.139Z,8.70
2022-12-06T03:18:20.895Z,8.77
2022-12-06T03:21:09.141Z,9.80
2022-12-06T03:23:47.146Z,7.63
2022-12-06T03:26:24.055Z,8.38
2022-12-06T03:28:59.575Z,8.57
2022-12-06T03:31:35.154Z,8.18
2022-12-06T03:34:16.667Z,11.20
2022-12-06T03:36:50.936Z,10.53
2022-12-06T03:39:36.203Z,10.57
2022-12-06T03:42:09.569Z,11.90
2022-12-06T03:44:42.590Z,10.77
2022-12-06T03:47:21.382Z,9.57
2022-12-06T03:50:01.528Z,8.60
2022-12-06T03:52:34.126Z,9.25
2022-12-06T03:55:07.740Z,10.88
2022-12-06T03:57:40.043Z,8.15
2022-12-06T04:00:12.999Z,8.45
2022-12-06T04:02:45.982Z,8.07
2022-12-06T04:05:18.650Z,8.10
2022-12-06T04:07:51.411Z,9.02
2022-12-06T04:10:24.241Z,10.32
2022-12-06T04:13:02.819Z,8.15
2022-12-06T04:15:38.545Z,8.43
2022-12-06T04:18:14.414Z,8.27
2022-12-06T04:21:11.074Z,9.10
2022-12-06T04:23:48.076Z,7.82
2022-12-06T04:26:22.588Z,8.43
2022-12-06T04:29:13.414Z,7.17
2022-12-06T04:32:04.083Z,7.90
2022-12-06T04:34:54.525Z,9.02
2022-12-06T04:37:45.618Z,8.20
2022-12-06T04:40:18.308Z,9.13
2022-12-06T04:43:08.461Z,8.30
2022-12-06T04:45:41.161Z,8.32
2022-12-06T04:48:13.078Z,11.73
2022-12-06T04:50:51.956Z,8.60
2022-12-06T04:53:23.868Z,7.65
2022-12-06T04:55:56.850Z,7.97
2022-12-06T04:58:29.250Z,10.05
2022-12-06T05:01:01.630Z,9.68
2022-12-06T05:03:36.423Z,6.75
2022-12-06T05:06:12.552Z,8.45
2022-12-06T05:08:44.984Z,9.03
2022-12-06T05:11:17.499Z,7.85
2022-12-06T05:13:50.270Z,7.57
2022-12-06T05:16:22.218Z,7.72
2022-12-06T05:18:55.359Z,7.60
2022-12-06T05:21:27.641Z,7.40
2022-12-06T05:23:59.713Z,7.05
2022-12-06T05:26:32.532Z,9.45
2022-12-06T05:29:04.715Z,7.53
2022-12-06T05:31:37.890Z,8.55
2022-12-06T05:34:11.018Z,7.43
2022-12-06T05:36:45.798Z,7.78
2022-12-06T05:39:17.736Z,7.00
2022-12-06T05:41:50.843Z,12.30
2022-12-06T05:44:22.731Z,9.02
2022-12-06T05:46:55.830Z,10.90
2022-12-06T05:49:28.091Z,9.38
2022-12-06T05:52:03.960Z,9.07
2022-12-06T05:54:36.489Z,8.30
2022-12-06T05:57:11.514Z,9.30
2022-12-06T05:59:44.243Z,8.47
2022-12-06T06:02:16.260Z,9.85
2022-12-06T06:04:49.085Z,8.07
2022-12-06T06:07:20.985Z,7.50
2022-12-06T06:09:53.714Z,7.32
2022-12-06T06:12:25.901Z,8.10
2022-12-06T06:14:58.664Z,8.45
2022-12-06T06:17:31.314Z,8.93
2022-12-06T06:20:05.929Z,9.23
2022-12-06T06:22:40.829Z,10.43
2022-12-06T06:25:12.751Z,9.87
2022-12-06T06:27:45.457Z,8.82
2022-12-06T06:30:17.617Z,12.18
2022-12-06T06:32:50.934Z,9.07
2022-12-06T06:35:22.873Z,9.27
2022-12-06T06:37:55.564Z,7.97
2022-12-06T06:40:29.037Z,9.38
2022-12-06T06:43:18.824Z,8.73
2022-12-06T06:46:00.024Z,9.57
2022-12-06T06:48:35.596Z,14.57
2022-12-06T06:51:14.013Z,12.57
2022-12-06T06:53:46.417Z,12.98
2022-12-06T06:56:20.121Z,14.40
2022-12-06T06:58:52.808Z,14.07
2022-12-06T07:01:25.894Z,17.17
2022-12-06T07:03:58.754Z,21.90
2022-12-06T07:06:32.178Z,23.25
2022-12-06T07:09:04.299Z,21.95
2022-12-06T07:11:37.131Z,20.77
2022-12-06T07:14:10.125Z,25.42
2022-12-06T07:16:43.055Z,25.70
2022-12-06T07:19:15.385Z,21.98
2022-12-06T07:21:48.575Z,24.10
2022-12-06T07:24:20.633Z,25.67
2022-12-06T07:27:15.016Z,20.85
2022-12-06T07:29:47.363Z,21.57
2022-12-06T07:32:19.655Z,21.88
2022-12-06T07:34:51.514Z,19.27
2022-12-06T07:37:24.812Z,20.85
2022-12-06T07:39:57.444Z,21.17
2022-12-06T07:42:48.531Z,21.67
2022-12-06T07:45:22.006Z,18.27
2022-12-06T07:47:54.471Z,19.98
2022-12-06T07:50:27.412Z,21.33
2022-12-06T07:53:00.123Z,20.95
2022-12-06T07:55:32.989Z,21.47
2022-12-06T07:58:05.120Z,20.10
2022-12-06T08:00:38.219Z,20.48
2022-12-06T08:03:11.084Z,21.95
2022-12-06T08:05:42.983Z,23.60
2022-12-06T08:08:15.753Z,21.10
2022-12-06T08:10:47.658Z,19.33
2022-12-06T08:13:20.968Z,22.63
2022-12-06T08:15:54.421Z,20.88
2022-12-06T08:18:26.975Z,21.70
2022-12-06T08:20:59.944Z,20.97
2022-12-06T08:23:34.512Z,21.00
2022-12-06T08:26:12.832Z,23.85
2022-12-06T08:28:45.660Z,26.13
2022-12-06T08:31:21.381Z,18.88
2022-12-06T08:33:54.162Z,20.97
2022-12-06T08:36:26.864Z,22.15
2022-12-06T08:39:00.197Z,23.48
2022-12-06T08:41:52.002Z,20.80
2022-12-06T08:44:27.213Z,19.60
2022-12-06T08:47:02.380Z,20.53
2022-12-06T08:49:34.399Z,18.60
2022-12-06T08:52:07.151Z,20.55
2022-12-06T08:54:40.263Z,19.40
2022-12-06T08:57:12.544Z,24.27
2022-12-06T08:59:45.418Z,18.90
2022-12-06T09:02:17.448Z,18.33
2022-12-06T09:04:53.379Z,18.33
2022-12-06T09:07:26.404Z,17.65
2022-12-06T09:09:59.453Z,18.42
2022-12-06T09:12:31.651Z,20.10
2022-12-06T09:15:05.312Z,14.85
2022-12-06T09:17:37.227Z,16.88
2022-12-06T09:20:10.362Z,16.10
2022-12-06T09:22:43.188Z,15.90
2022-12-06T09:25:15.908Z,14.07
2022-12-06T09:27:49.015Z,17.27
2022-12-06T09:30:21.030Z,15.82
2022-12-06T09:32:53.760Z,16.13
2022-12-06T09:35:25.879Z,15.88
2022-12-06T09:37:59.884Z,13.43
2022-12-06T09:40:41.330Z,16.00
2022-12-06T09:43:53.904Z,15.15
2022-12-06T09:47:21.328Z,23.60
2022-12-06T09:50:11.518Z,16.05
2022-12-06T09:53:15.583Z,15.23
2022-12-06T09:56:11.993Z,15.75
2022-12-06T09:58:59.263Z,13.60
2022-12-06T10:01:56.698Z,16.67
2022-12-06T10:05:07.867Z,17.17
2022-12-06T10:08:10.890Z,17.53
2022-12-06T10:11:00.657Z,16.60
2022-12-06T10:14:19.123Z,15.85
2022-12-06T10:17:23.396Z,16.73
2022-12-06T10:20:04.703Z,15.70
2022-12-06T10:23:11.077Z,16.97
2022-12-06T10:26:16.929Z,16.60
2022-12-06T10:29:38.098Z,14.95
2022-12-06T10:32:21.873Z,17.27
2022-12-06T10:35:18.819Z,15.23
2022-12-06T10:38:06.395Z,15.00
2022-12-06T10:41:33.554Z,14.25
2022-12-06T10:44:30.296Z,14.50
2022-12-06T10:47:42.011Z,14.60
2022-12-06T10:50:29.183Z,15.25
2022-12-06T10:53:13.128Z,16.17
2022-12-06T10:55:56.648Z,14.48
2022-12-06T10:58:49.347Z,15.30
2022-12-06T11:01:28.787Z,16.60
2022-12-06T11:04:10.426Z,16.98
2022-12-06T11:06:54.326Z,17.37
2022-12-06T11:09:45.640Z,15.93
2022-12-06T11:12:36.205Z,16.48
2022-12-06T11:15:32.669Z,16.52
2022-12-06T11:18:16.845Z,17.17
2022-12-06T11:21:04.232Z,15.63
2022-12-06T11:23:50.697Z,20.08
2022-12-06T11:27:11.576Z,16.15
2022-12-06T11:29:45.417Z,15.07
2022-12-06T11:32:21.524Z,19.77
2022-12-06T11:34:58.070Z,19.43
2022-12-06T11:37:33.643Z,17.23
2022-12-06T11:40:47.660Z,15.65
2022-12-06T11:43:29.950Z,15.82
2022-12-06T11:46:05.115Z,16.52
2022-12-06T11:48:37.639Z,16.00
2022-12-06T11:51:25.800Z,19.70
2022-12-06T11:54:28.182Z,16.33
2022-12-06T11:57:17.989Z,17.17
2022-12-06T12:00:17.707Z,16.60
2022-12-06T12:02:54.791Z,15.93
2022-12-06T12:05:38.720Z,15.48
2022-12-06T12:08:20.134Z,17.73
2022-12-06T12:11:02.351Z,17.90
2022-12-06T12:13:48.852Z,14.98
2022-12-06T12:16:23.582Z,16.93
2022-12-06T12:19:03.588Z,16.63
2022-12-06T12:21:40.083Z,16.60
2022-12-06T12:25:18.522Z,16.25
2022-12-06T12:27:40.530Z,15.48
2022-12-06T12:30:33.272Z,19.30
2022-12-06T12:33:09.177Z,17.50
2022-12-06T12:35:55.878Z,18.45
2022-12-06T12:38:56.425Z,18.30
2022-12-06T12:41:39.725Z,16.73
2022-12-06T12:44:37.431Z,16.43
2022-12-06T12:47:20.810Z,20.25
2022-12-06T12:50:24.117Z,19.40
2022-12-06T12:52:56.586Z,20.45
2022-12-06T12:55:31.651Z,19.73
2022-12-06T12:58:09.722Z,17.83
2022-12-06T13:00:43.996Z,21.63
2022-12-06T13:03:52.463Z,24.20
2022-12-06T13:06:25.965Z,21.67
2022-12-06T13:09:04.567Z,21.48
2022-12-06T13:11:46.524Z,21.30
2022-12-06T13:14:21.525Z,18.30
2022-12-06T13:16:57.160Z,20.48
2022-12-06T13:19:50.177Z,17.02
2022-12-06T13:22:31.957Z,21.48
2022-12-06T13:25:07.880Z,18.37
2022-12-06T13:30:42.463Z,18.80
2022-12-06T13:33:27.354Z,31.13
2022-12-06T13:36:07.781Z,18.23
2022-12-06T13:38:44.832Z,19.07
2022-12-06T13:41:54.344Z,18.70
2022-12-06T13:44:52.114Z,20.08
2022-12-06T13:47:27.809Z,19.58
2022-12-06T13:50:24.001Z,19.77
2022-12-06T13:52:56.188Z,28.53
2022-12-06T13:55:28.437Z,19.98
2022-12-06T13:58:01.134Z,18.73
2022-12-06T14:00:34.455Z,16.00
2022-12-06T14:03:22.050Z,15.23
2022-12-06T14:06:15.241Z,16.97
2022-12-06T14:09:00.113Z,14.75
2022-12-06T14:11:38.166Z,19.00
2022-12-06T14:14:24.788Z,17.50
2022-12-06T14:17:03.020Z,15.10
2022-12-06T14:19:50.153Z,17.13
2022-12-06T14:22:27.844Z,15.98
2022-12-06T14:25:22.897Z,15.75
2022-12-06T14:28:10.965Z,15.32
2022-12-06T14:30:44.834Z,14.52
2022-12-06T14:33:23.640Z,14.73
2022-12-06T14:35:57.414Z,21.30
2022-12-06T14:38:31.246Z,12.25
2022-12-06T14:41:22.424Z,14.30
2022-12-06T14:43:54.538Z,12.07
2022-12-06T14:46:27.682Z,14.27
2022-12-06T14:49:29.752Z,13.85
2022-12-06T14:52:02.549Z,14.32
2022-12-06T14:54:42.998Z,14.95
2022-12-06T14:57:31.913Z,13.45
2022-12-06T15:00:27.228Z,14.77
2022-12-06T15:03:21.391Z,14.50
2022-12-06T15:06:18.170Z,13.45
2022-12-06T15:08:55.452Z,14.98
2022-12-06T15:11:57.988Z,14.10
2022-12-06T15:14:47.811Z,15.50
2022-12-06T15:17:23.150Z,14.98
2022-12-06T15:19:55.434Z,14.05
2022-12-06T15:22:29.497Z,15.65
2022-12-06T15:25:03.639Z,12.90
2022-12-06T15:27:36.367Z,14.73
2022-12-06T15:30:10.327Z,12.98
2022-12-06T15:32:42.972Z,12.82
2022-12-06T15:35:20.487Z,14.90
2022-12-06T15:37:52.461Z,13.30
2022-12-06T15:40:25.698Z,11.93
2022-12-06T15:43:02.352Z,11.20
2022-12-06T15:45:35.581Z,15.88
2022-12-06T15:48:08.265Z,12.07
2022-12-06T15:50:41.384Z,10.38
2022-12-06T15:53:19.709Z,12.97
2022-12-06T15:55:53.302Z,12.93
2022-12-06T15:58:26.587Z,10.80
2022-12-06T16:00:59.866Z,11.15
2022-12-06T16:03:32.773Z,13.77
2022-12-06T16:06:05.005Z,13.63
2022-12-06T16:08:37.789Z,11.90
2022-12-06T16:11:12.906Z,11.73
2022-12-06T16:13:46.002Z,10.85
2022-12-06T16:16:20.730Z,13.50
2022-12-06T16:18:54.207Z,25.10
2022-12-06T16:21:31.237Z,28.33
2022-12-06T16:24:14.201Z,27.13
2022-12-06T16:26:47.043Z,24.23
2022-12-06T16:29:23.993Z,24.38
2022-12-06T16:31:56.045Z,23.33
2022-12-06T16:34:29.611Z,24.85
2022-12-06T16:37:09.373Z,27.25
2022-12-06T16:39:41.679Z,28.23
2022-12-06T16:42:14.584Z,25.63
2022-12-06T16:44:52.999Z,24.47
2022-12-06T16:49:56.659Z,23.40
2022-12-06T16:52:31.461Z,24.10
2022-12-06T16:55:04.330Z,24.55
2022-12-06T16:57:37.426Z,80.03
2022-12-06T17:00:11.304Z,24.55
2022-12-06T17:02:47.224Z,24.85
2022-12-06T17:05:24.269Z,66.55
2022-12-06T17:07:57.141Z,33.53
2022-12-06T17:10:30.201Z,24.30
2022-12-06T17:13:03.776Z,25.08
2022-12-06T17:15:35.655Z,23.30
2022-12-06T17:18:08.422Z,21.77
2022-12-06T17:20:40.288Z,23.90
2022-12-06T17:23:15.850Z,25.53
2022-12-06T17:25:57.768Z,33.60
2022-12-06T17:28:30.524Z,59.88
2022-12-06T17:31:02.534Z,37.13
2022-12-06T17:33:36.172Z,26.15
2022-12-06T17:36:11.262Z,25.70
2022-12-06T17:38:44.916Z,25.17
2022-12-06T17:41:48.531Z,24.75
2022-12-06T17:44:24.527Z,23.50
2022-12-06T17:46:56.820Z,23.10
2022-12-06T17:49:30.090Z,25.93
2022-12-06T17:52:03.407Z,21.63
2022-12-06T17:54:35.625Z,26.08
2022-12-06T17:57:17.820Z,26.48
2022-12-06T17:59:50.673Z,23.92
2022-12-06T18:02:24.866Z,25.37
2022-12-06T18:04:58.199Z,24.13
2022-12-06T18:07:30.134Z,22.98
2022-12-06T18:10:02.849Z,27.25
2022-12-06T18:12:35.762Z,26.40
2022-12-06T18:15:29.247Z,24.97
2022-12-06T18:18:01.916Z,25.67
2022-12-06T18:20:34.288Z,25.35
2022-12-06T18:23:07.094Z,29.77
2022-12-06T18:25:42.599Z,26.05
2022-12-06T18:28:15.336Z,30.47
2022-12-06T18:30:47.967Z,24.10
2022-12-06T18:33:24.315Z,23.83
2022-12-06T18:35:59.357Z,23.63
2022-12-06T18:38:34.412Z,24.40
2022-12-06T18:41:18.220Z,22.60
2022-12-06T18:43:50.918Z,24.10
2022-12-06T18:46:42.497Z,21.77
2022-12-06T18:49:15.585Z,23.30
2022-12-06T18:51:47.474Z,25.27
2022-12-06T18:54:20.813Z,23.30
2022-12-06T18:56:53.296Z,25.60
2022-12-06T18:59:27.751Z,22.05
2022-12-06T19:02:00.022Z,29.83
2022-12-06T19:04:32.862Z,22.92
2022-12-06T19:07:05.238Z,28.63
2022-12-06T19:09:37.636Z,161.65
2022-12-06T19:12:10.271Z,168.18
2022-12-06T19:14:42.976Z,31.88
2022-12-06T19:17:15.711Z,24.42
2022-12-06T19:19:47.923Z,21.93
2022-12-06T19:22:27.777Z,25.80
2022-12-06T19:25:00.116Z,24.20
2022-12-06T19:27:32.709Z,24.50
2022-12-06T19:30:08.762Z,24.33
2022-12-06T19:32:40.835Z,22.53
2022-12-06T19:35:13.869Z,19.58
2022-12-06T19:37:46.262Z,21.52
2022-12-06T19:40:18.186Z,24.23
2022-12-06T19:43:09.247Z,23.50
2022-12-06T19:45:41.172Z,21.87
2022-12-06T19:48:14.996Z,18.65
2022-12-06T19:50:49.632Z,21.38
2022-12-06T19:53:22.506Z,25.20
2022-12-06T19:56:09.528Z,23.13
2022-12-06T19:58:41.469Z,18.90
2022-12-06T20:01:21.818Z,21.40
2022-12-06T20:03:54.628Z,19.30
2022-12-06T20:06:28.131Z,21.35
2022-12-06T20:09:01.313Z,20.77
2022-12-06T20:11:56.122Z,19.20
2022-12-06T20:14:48.622Z,20.38
2022-12-06T20:17:23.587Z,19.67
2022-12-06T20:19:57.192Z,20.75
2022-12-06T20:22:29.485Z,21.42
2022-12-06T20:25:01.449Z,22.07
2022-12-06T20:27:52.378Z,21.63
2022-12-06T20:30:24.316Z,20.48
2022-12-06T20:32:57.037Z,21.63
2022-12-06T20:35:29.255Z,22.48
2022-12-06T20:38:01.561Z,21.17
2022-12-06T20:40:35.442Z,20.67
2022-12-06T20:43:07.610Z,19.70
2022-12-06T20:45:40.363Z,23.13
2022-12-06T20:48:12.683Z,22.63
2022-12-06T20:50:45.400Z,22.57
2022-12-06T20:53:17.543Z,21.48
2022-12-06T20:55:50.231Z,20.40
2022-12-06T20:58:22.657Z,21.48
2022-12-06T21:00:58.499Z,21.98
2022-12-06T21:03:35.041Z,22.77
2022-12-06T21:06:10.577Z,19.92
2022-12-06T21:08:43.287Z,21.65
2022-12-06T21:11:24.097Z,22.05
2022-12-06T21:13:58.557Z,20.08
2022-12-06T21:19:26.433Z,17.10
2022-12-06T21:22:01.027Z,20.20
2022-12-06T21:24:34.240Z,20.60
2022-12-06T21:27:06.129Z,20.65
2022-12-06T21:29:42.861Z,21.03
2022-12-06T21:32:15.708Z,21.38
2022-12-06T21:34:48.276Z,20.98
2022-12-06T21:37:20.169Z,20.48
2022-12-06T21:39:52.875Z,20.42
2022-12-06T21:42:25.189Z,21.57
2022-12-06T21:44:57.519Z,22.38
2022-12-06T21:47:30.013Z,23.45
2022-12-06T21:50:02.800Z,19.65
2022-12-06T21:52:36.215Z,22.17
2022-12-06T21:55:09.828Z,19.87
2022-12-06T21:57:41.744Z,23.67
2022-12-06T22:00:18.103Z,24.08
2022-12-06T22:02:52.390Z,22.20
2022-12-06T22:05:25.191Z,23.80
2022-12-06T22:07:57.106Z,24.23
2022-12-06T22:10:29.850Z,19.75
2022-12-06T22:13:01.697Z,24.00
2022-12-06T22:15:34.747Z,21.02
2022-12-06T22:18:06.710Z,23.63
2022-12-06T22:20:39.808Z,25.03
2022-12-06T22:23:12.112Z,22.23
2022-12-06T22:25:44.412Z,22.30
2022-12-06T22:28:16.285Z,24.80
2022-12-06T22:30:49.033Z,23.13
2022-12-06T22:33:20.891Z,24.40
2022-12-06T22:35:53.588Z,21.00
2022-12-06T22:38:25.460Z,24.40
2022-12-06T22:40:59.332Z,24.98
2022-12-06T22:43:32.254Z,23.88
2022-12-06T22:46:23.618Z,26.00
2022-12-06T22:48:57.391Z,22.83
2022-12-06T22:51:38.162Z,25.38
2022-12-06T22:54:13.427Z,27.95
2022-12-06T22:56:48.744Z,23.75
2022-12-06T22:59:22.524Z,23.17
2022-12-06T23:01:54.833Z,24.67
2022-12-06T23:04:27.531Z,24.15
2022-12-06T23:06:59.457Z,24.88
2022-12-06T23:09:32.655Z,25.95
2022-12-06T23:12:05.050Z,23.67
2022-12-06T23:14:37.784Z,23.77
2022-12-06T23:17:09.856Z,24.52
2022-12-06T23:19:44.602Z,25.20
2022-12-06T23:22:16.930Z,24.10
2022-12-06T23:24:52.230Z,23.60
2022-12-06T23:27:25.011Z,26.17
2022-12-06T23:29:56.928Z,27.65
2022-12-06T23:32:30.041Z,27.05
2022-12-06T23:35:01.964Z,27.15
2022-12-06T23:37:33.809Z,28.10
2022-12-06T23:40:07.470Z,27.42
2022-12-06T23:42:39.377Z,28.48
2022-12-06T23:45:12.110Z,29.05
2022-12-06T23:47:43.961Z,25.67
2022-12-06T23:50:16.712Z,24.70
2022-12-06T23:52:48.592Z,28.42
2022-12-06T23:55:21.323Z,27.13
2022-12-06T23:57:53.201Z,24.05
